Time;durP1;ratioP1;P1;durP2;ratioP2;P2;SDS_P1;SDS_P2;PMS_P1;PMS_P2;Temp;Humidity;BMP_temperature;BMP_pressure;BME280_temperature;BME280_humidity;BME280_pressure;Samples;Min_cycle;Max_cycle;Signal;HPM_P1;HPM_P2
2021/01/17 00:00:53;;;;;;;;;;;;;;;-6.16;91.71;92849.72;1063616;56;20251;-84
2021/01/17 00:01:53;;;;;;;;;;;;;;;-6.14;91.67;92845.00;1063734;56;20169;-86
2021/01/17 00:02:56;;;;;;;;;;;;;;;-6.22;92.31;92845.81;1063930;56;20213;-85
2021/01/17 00:03:56;;;;;;;;;;;;;;;-6.12;92.15;92847.25;1063856;56;20098;-84
2021/01/17 00:04:57;;;;;;;;;;;;;;;-6.15;92.91;92837.47;1061771;56;20146;-83
2021/01/17 00:05:58;;;;;;;;;;;;;;;-6.18;92.89;92843.34;1061604;56;20171;-87
2021/01/17 00:06:58;;;;;;;;;;;;;;;-6.20;93.30;92837.69;1061641;56;20286;-84
2021/01/17 00:07:59;;;;;;;;;;;;;;;-6.07;92.47;92843.72;1064003;56;20165;-85
2021/01/17 00:08:59;;;;;;;;;;;;;;;-6.09;92.21;92834.38;1065921;55;20158;-84
2021/01/17 00:10:00;;;;;;;;;;;;;;;-6.12;92.04;92835.00;1063574;56;20163;-85
2021/01/17 00:11:02;;;;;;;;;;;;;;;-6.08;91.51;92829.94;1063677;56;20184;-85
2021/01/17 00:12:04;;;;;;;;;;;;;;;-6.13;91.51;92832.75;1063374;56;20309;-85
2021/01/17 00:13:06;;;;;;;;;;;;;;;-6.10;91.67;92825.06;1063912;56;20186;-85
2021/01/17 00:14:07;;;;;;;;;;;;;;;-6.19;92.43;92828.78;1061770;56;20166;-85
2021/01/17 00:15:09;;;;;;;;;;;;;;;-6.15;92.78;92827.09;1061736;56;20155;-84
2021/01/17 00:16:10;;;;;;;;;;;;;;;-6.22;92.94;92835.41;1059735;56;20163;-86
2021/01/17 00:17:11;;;;;;;;;;;;;;;-6.23;93.20;92820.87;1061500;56;20658;-85
2021/01/17 00:18:12;;;;;;;;;;;;;;;-6.13;93.11;92819.72;1063891;56;20170;-83
2021/01/17 00:19:12;;;;;;;;;;;;;;;-6.15;92.74;92824.47;1063777;56;20162;-85
2021/01/17 00:20:14;;;;;;;;;;;;;;;-6.24;92.55;92810.78;1063687;56;20245;-84
2021/01/17 00:21:15;;;;;;;;;;;;;;;-6.22;92.91;92809.41;1063940;55;20162;-85
2021/01/17 00:22:20;;;;;;;;;;;;;;;-6.17;92.73;92814.41;1063807;56;20166;-85
2021/01/17 00:23:20;;;;;;;;;;;;;;;-6.16;92.28;92808.13;1061789;56;20159;-85
2021/01/17 00:24:22;;;;;;;;;;;;;;;-6.15;92.03;92811.47;1063821;56;21198;-83
2021/01/17 00:25:23;;;;;;;;;;;;;;;-6.10;91.75;92806.87;1063667;56;20250;-85
2021/01/17 00:26:23;;;;;;;;;;;;;;;-6.07;92.37;92804.69;1063809;56;20177;-84
2021/01/17 00:27:24;;;;;;;;;;;;;;;-6.08;91.86;92801.34;1063719;56;20168;-85
2021/01/17 00:28:25;;;;;;;;;;;;;;;-6.06;92.25;92795.81;1061591;56;20674;-84
2021/01/17 00:29:25;;;;;;;;;;;;;;;-6.12;91.93;92803.81;1061703;56;20233;-85
2021/01/17 00:30:27;;;;;;;;;;;;;;;-6.17;92.62;92806.59;1061596;56;20290;-85
2021/01/17 00:31:28;;;;;;;;;;;;;;;-6.22;93.27;92804.19;1061598;56;20170;-84
2021/01/17 00:32:28;;;;;;;;;;;;;;;-6.21;93.43;92799.75;1061549;56;20163;-84
2021/01/17 00:33:29;;;;;;;;;;;;;;;-6.18;93.32;92799.88;1061599;56;20604;-84
2021/01/17 00:34:29;;;;;;;;;;;;;;;-6.12;92.51;92800.44;1063580;56;20150;-84
2021/01/17 00:35:32;;;;;;;;;;;;;;;-6.07;92.96;92802.84;1063545;56;20158;-84
2021/01/17 00:36:36;;;;;;;;;;;;;;;-6.16;92.91;92799.56;1063737;56;20679;-85
2021/01/17 00:37:37;;;;;;;;;;;;;;;-6.14;93.09;92797.41;1063743;56;20166;-84
2021/01/17 00:38:37;;;;;;;;;;;;;;;-6.07;93.11;92791.69;1063593;56;20282;-84
2021/01/17 00:39:39;;;;;;;;;;;;;;;-6.06;92.62;92795.81;1063742;56;20188;-85
2021/01/17 00:40:39;;;;;;;;;;;;;;;-6.07;92.74;92783.87;1059377;56;20174;-84
2021/01/17 00:41:41;;;;;;;;;;;;;;;-6.16;92.70;92791.75;1061525;56;20185;-85
2021/01/17 00:42:48;;;;;;;;;;;;;;;-6.23;93.27;92792.28;1063267;56;20177;-83
2021/01/17 00:43:48;;;;;;;;;;;;;;;-6.17;93.46;92791.00;1061679;56;20186;-84
2021/01/17 00:44:49;;;;;;;;;;;;;;;-6.11;93.67;92794.16;1065390;55;20162;-85
2021/01/17 00:45:49;;;;;;;;;;;;;;;-6.03;93.91;92787.38;1067986;55;20658;-84
2021/01/17 00:46:50;;;;;;;;;;;;;;;-6.07;94.05;92789.09;1063848;56;20189;-83
2021/01/17 00:47:51;;;;;;;;;;;;;;;-6.07;93.23;92789.09;1061583;56;20154;-85
2021/01/17 00:48:51;;;;;;;;;;;;;;;-6.00;92.89;92790.09;1061485;56;20151;-86
2021/01/17 00:49:51;;;;;;;;;;;;;;;-6.13;93.37;92785.94;1061529;56;20685;-84
2021/01/17 00:50:52;;;;;;;;;;;;;;;-6.13;94.22;92783.31;1063774;56;20162;-85
2021/01/17 00:51:53;;;;;;;;;;;;;;;-6.01;93.76;92785.97;1063709;56;21165;-83
2021/01/17 00:52:55;;;;;;;;;;;;;;;-6.00;93.48;92786.72;1059580;56;20655;-86
2021/01/17 00:53:57;;;;;;;;;;;;;;;-5.97;93.57;92783.47;1063610;55;20184;-83
2021/01/17 00:54:57;;;;;;;;;;;;;;;-6.01;92.96;92787.78;1068170;55;20161;-85
2021/01/17 00:55:58;;;;;;;;;;;;;;;-5.98;93.65;92787.91;1063759;56;20147;-84
2021/01/17 00:57:04;;;;;;;;;;;;;;;-5.97;93.37;92789.47;1063574;56;20155;-84
2021/01/17 00:58:06;;;;;;;;;;;;;;;-5.96;93.20;92793.56;1065900;55;20604;-84
2021/01/17 00:59:08;;;;;;;;;;;;;;;-5.95;93.45;92786.53;1063479;56;20181;-85
2021/01/17 01:00:09;;;;;;;;;;;;;;;-5.94;93.42;92790.66;1063446;56;20194;-85
2021/01/17 01:01:10;;;;;;;;;;;;;;;-5.86;92.80;92785.34;1061222;56;20268;-85
2021/01/17 01:02:11;;;;;;;;;;;;;;;-5.79;92.22;92779.62;1061385;56;20166;-83
2021/01/17 01:03:12;;;;;;;;;;;;;;;-5.79;92.47;92778.84;1063219;56;21092;-83
2021/01/17 01:04:13;;;;;;;;;;;;;;;-5.89;92.58;92780.00;1063405;56;20182;-84
2021/01/17 01:05:14;;;;;;;;;;;;;;;-5.84;93.55;92779.78;1061387;56;20727;-85
2021/01/17 01:06:18;;;;;;;;;;;;;;;-5.86;93.32;92774.16;1061348;56;20189;-84
2021/01/17 01:07:18;;;;;;;;;;;;;;;-5.90;92.91;92778.50;1063677;55;20174;-86
2021/01/17 01:08:20;;;;;;;;;;;;;;;-5.80;93.17;92778.06;1067653;55;20153;-84
2021/01/17 01:09:22;;;;;;;;;;;;;;;-5.78;92.34;92775.16;1065464;55;20670;-85
2021/01/17 01:10:25;;;;;;;;;;;;;;;-5.90;92.80;92784.44;1065726;55;20212;-84
2021/01/17 01:11:25;;;;;;;;;;;;;;;-5.88;93.30;92774.50;1065204;55;20247;-82
2021/01/17 01:12:26;;;;;;;;;;;;;;;-5.90;93.16;92781.84;1065438;55;20165;-84
2021/01/17 01:13:27;;;;;;;;;;;;;;;-5.87;93.26;92778.62;1063576;56;20155;-84
2021/01/17 01:14:28;;;;;;;;;;;;;;;-5.83;93.06;92776.88;1061311;56;20659;-83
2021/01/17 01:15:28;;;;;;;;;;;;;;;-5.87;93.38;92780.47;1061140;56;20155;-83
2021/01/17 01:16:29;;;;;;;;;;;;;;;-5.87;93.05;92781.22;1063388;56;20151;-85
2021/01/17 01:17:29;;;;;;;;;;;;;;;-5.90;93.28;92781.09;1061314;56;20234;-84
2021/01/17 01:18:30;;;;;;;;;;;;;;;-5.91;93.28;92774.38;1061106;56;20182;-84
2021/01/17 01:19:31;;;;;;;;;;;;;;;-5.79;93.55;92773.63;1063235;56;20189;-83
2021/01/17 01:20:31;;;;;;;;;;;;;;;-5.86;93.50;92774.91;1063127;56;20182;-83
2021/01/17 01:21:33;;;;;;;;;;;;;;;-5.85;93.42;92776.44;1060864;56;20276;-86
2021/01/17 01:22:33;;;;;;;;;;;;;;;-5.87;93.85;92772.66;1063341;56;20198;-83
2021/01/17 01:23:34;;;;;;;;;;;;;;;-5.77;93.54;92774.09;1060930;56;20167;-83
2021/01/17 01:24:36;;;;;;;;;;;;;;;-5.86;93.49;92777.53;1061107;56;20162;-82
2021/01/17 01:25:36;;;;;;;;;;;;;;;-5.91;93.84;92777.72;1063138;56;20169;-85
2021/01/17 01:26:39;;;;;;;;;;;;;;;-5.87;94.22;92768.22;1063111;56;20301;-85
2021/01/17 01:27:40;;;;;;;;;;;;;;;-5.89;94.24;92780.00;1063181;55;20640;-85
2021/01/17 01:28:41;;;;;;;;;;;;;;;-5.85;94.30;92775.69;1063144;56;20146;-84
2021/01/17 01:29:41;;;;;;;;;;;;;;;-5.89;94.65;92775.56;1063091;56;20180;-86
2021/01/17 01:30:41;;;;;;;;;;;;;;;-5.82;94.40;92775.03;1063082;56;20678;-84
2021/01/17 01:31:45;;;;;;;;;;;;;;;-5.84;94.40;92767.56;1062980;56;20190;-84
2021/01/17 01:32:50;;;;;;;;;;;;;;;-5.84;94.23;92767.56;1065148;55;20958;-84
2021/01/17 01:33:52;;;;;;;;;;;;;;;-5.77;94.39;92772.25;1063215;55;20620;-84
2021/01/17 01:34:52;;;;;;;;;;;;;;;-5.83;94.11;92763.13;1065584;55;20185;-83
2021/01/17 01:35:53;;;;;;;;;;;;;;;-5.82;94.21;92765.41;1065368;55;20209;-84
2021/01/17 01:36:53;;;;;;;;;;;;;;;-5.79;94.22;92761.41;1063094;56;20181;-84
2021/01/17 01:37:54;;;;;;;;;;;;;;;-5.81;94.72;92758.34;1063101;56;20150;-84
2021/01/17 01:38:55;;;;;;;;;;;;;;;-5.71;94.88;92752.72;1063314;56;20606;-83
2021/01/17 01:39:56;;;;;;;;;;;;;;;-5.72;94.24;92750.44;1061147;56;20166;-85
2021/01/17 01:40:57;;;;;;;;;;;;;;;-5.78;94.29;92760.31;1065429;55;20184;-85
2021/01/17 01:42:02;;;;;;;;;;;;;;;-5.78;94.65;92746.53;1065396;55;20149;-84
2021/01/17 01:43:03;;;;;;;;;;;;;;;-5.73;94.54;92754.91;1063382;56;20189;-85
2021/01/17 01:44:04;;;;;;;;;;;;;;;-5.77;94.33;92743.59;1063297;56;20174;-83
2021/01/17 01:45:04;;;;;;;;;;;;;;;-5.78;94.18;92752.50;1063222;56;20166;-83
2021/01/17 01:46:05;;;;;;;;;;;;;;;-5.71;94.27;92744.16;1060963;56;20177;-83
2021/01/17 01:47:13;;;;;;;;;;;;;;;-5.69;93.96;92755.78;1060893;56;20642;-84
2021/01/17 01:48:14;;;;;;;;;;;;;;;-5.72;94.07;92756.41;1061499;56;21046;-86
2021/01/17 01:49:15;;;;;;;;;;;;;;;-5.64;94.01;92741.78;1064861;55;20189;-83
2021/01/17 01:50:16;;;;;;;;;;;;;;;-5.71;93.98;92749.34;1063026;56;20248;-82
2021/01/17 01:51:19;;;;;;;;;;;;;;;-5.65;94.20;92751.44;1060764;56;20182;-83
2021/01/17 01:52:20;;;;;;;;;;;;;;;-5.64;94.00;92749.59;1060929;56;20158;-83
2021/01/17 01:53:20;;;;;;;;;;;;;;;-5.63;94.15;92746.66;1062793;56;20162;-84
2021/01/17 01:54:21;;;;;;;;;;;;;;;-5.68;93.78;92739.06;1067307;55;20162;-83
2021/01/17 01:55:21;;;;;;;;;;;;;;;-5.63;93.84;92753.72;1067027;55;21064;-84
2021/01/17 01:56:22;;;;;;;;;;;;;;;-5.69;93.69;92742.00;1065409;55;20157;-84
2021/01/17 01:57:23;;;;;;;;;;;;;;;-5.63;93.66;92745.91;1065438;55;20181;-84
2021/01/17 01:58:24;;;;;;;;;;;;;;;-5.62;93.82;92743.00;1065414;55;20621;-84
2021/01/17 01:59:25;;;;;;;;;;;;;;;-5.60;93.57;92745.28;1063339;56;20241;-84
2021/01/17 02:00:27;;;;;;;;;;;;;;;-5.61;93.66;92744.50;1063611;56;20163;-84
2021/01/17 02:01:28;;;;;;;;;;;;;;;-5.59;93.99;92744.19;1063639;56;20177;-82
2021/01/17 02:02:28;;;;;;;;;;;;;;;-5.59;94.07;92736.38;1061440;56;20285;-84
2021/01/17 02:03:29;;;;;;;;;;;;;;;-5.64;94.07;92736.59;1061080;56;20615;-84
2021/01/17 02:04:29;;;;;;;;;;;;;;;-5.63;94.02;92740.69;1065451;55;20177;-83
2021/01/17 02:05:30;;;;;;;;;;;;;;;-5.59;93.93;92741.56;1060782;56;20235;-83
2021/01/17 02:06:30;;;;;;;;;;;;;;;-5.62;93.76;92740.41;1058996;56;20683;-84
2021/01/17 02:07:49;;;;;;;;;;;;;;;-5.63;94.30;92735.50;1058798;56;20244;-85
2021/01/17 02:09:04;;;;;;;;;;;;;;;-5.61;94.06;92735.94;1064532;55;20162;-85
2021/01/17 02:10:05;;;;;;;;;;;;;;;-5.66;94.43;92738.75;1062892;56;20740;-83
2021/01/17 02:11:28;;;;;;;;;;;;;;;-5.63;94.59;92741.47;1060946;56;20185;-83
2021/01/17 02:12:31;;;;;;;;;;;;;;;-5.60;94.28;92730.41;1058710;56;20218;-83
2021/01/17 02:13:39;;;;;;;;;;;;;;;-5.65;94.11;92728.00;1064348;55;20642;-84
2021/01/17 02:14:46;;;;;;;;;;;;;;;-5.57;94.56;92732.38;1059029;56;20158;-83
2021/01/17 02:15:47;;;;;;;;;;;;;;;-5.64;94.74;92724.31;1060950;56;20150;-85
2021/01/17 02:16:51;;;;;;;;;;;;;;;-5.58;95.07;92725.62;1060926;56;20202;-84
2021/01/17 02:17:52;;;;;;;;;;;;;;;-5.52;94.56;92725.44;1063165;56;20170;-83
2021/01/17 02:18:54;;;;;;;;;;;;;;;-5.51;94.23;92729.56;1063336;56;20221;-85
2021/01/17 02:20:07;;;;;;;;;;;;;;;-5.53;94.13;92726.50;1061068;56;20158;-85
2021/01/17 02:21:08;;;;;;;;;;;;;;;-5.51;93.97;92732.16;1061909;56;20150;-84
2021/01/17 02:22:10;;;;;;;;;;;;;;;-5.47;93.79;92730.41;1065365;55;20193;-83
2021/01/17 02:23:21;;;;;;;;;;;;;;;-5.51;93.57;92732.16;1065272;55;20158;-84
2021/01/17 02:24:24;;;;;;;;;;;;;;;-5.47;93.56;92723.38;1065945;55;20173;-83
2021/01/17 02:25:26;;;;;;;;;;;;;;;-5.48;93.63;92721.84;1065101;55;20233;-83
2021/01/17 02:26:26;;;;;;;;;;;;;;;-5.43;93.22;92719.03;1065559;55;20173;-86
2021/01/17 02:27:29;;;;;;;;;;;;;;;-5.50;93.83;92724.00;1063173;56;20204;-84
2021/01/17 02:28:29;;;;;;;;;;;;;;;-5.39;93.63;92724.34;1063094;56;20158;-84
2021/01/17 02:29:30;;;;;;;;;;;;;;;-5.44;93.39;92732.38;1063196;56;20166;-85
2021/01/17 02:30:32;;;;;;;;;;;;;;;-5.44;93.49;92727.19;1063669;56;20155;-85
2021/01/17 02:31:34;;;;;;;;;;;;;;;-5.51;93.48;92725.09;1065673;55;20178;-83
2021/01/17 02:32:44;;;;;;;;;;;;;;;-5.40;93.84;92728.03;1063597;56;20181;-84
2021/01/17 02:33:47;;;;;;;;;;;;;;;-5.51;93.86;92722.50;1063895;56;20174;-83
2021/01/17 02:34:49;;;;;;;;;;;;;;;-5.46;93.96;92721.53;1061126;56;20722;-84
2021/01/17 02:35:51;;;;;;;;;;;;;;;-5.41;94.08;92724.66;1059109;56;20162;-84
2021/01/17 02:36:59;;;;;;;;;;;;;;;-5.36;93.30;92727.03;1059454;56;20162;-85
2021/01/17 02:37:59;;;;;;;;;;;;;;;-5.38;93.24;92720.66;1059655;56;20206;-84
2021/01/17 02:39:18;;;;;;;;;;;;;;;-5.39;93.08;92732.94;1059020;56;20178;-84
2021/01/17 02:40:29;;;;;;;;;;;;;;;-5.49;93.90;92735.94;1060438;56;20178;-83
2021/01/17 02:41:43;;;;;;;;;;;;;;;-5.47;94.05;92733.03;1061677;56;20181;-83
2021/01/17 02:42:46;;;;;;;;;;;;;;;-5.48;94.20;92737.47;1061460;56;20189;-81
2021/01/17 02:43:47;;;;;;;;;;;;;;;-5.53;94.42;92729.87;1063218;56;20197;-84
2021/01/17 02:44:47;;;;;;;;;;;;;;;-5.58;94.30;92732.69;1061033;56;20647;-83
2021/01/17 02:45:48;;;;;;;;;;;;;;;-5.49;94.46;92727.38;1063156;56;21100;-84
2021/01/17 02:46:49;;;;;;;;;;;;;;;-5.51;94.43;92737.34;1065327;55;20185;-83
2021/01/17 02:47:49;;;;;;;;;;;;;;;-5.47;94.48;92730.41;1065051;55;20165;-85
2021/01/17 02:48:49;;;;;;;;;;;;;;;-5.43;94.13;92729.44;1063146;56;20236;-84
2021/01/17 02:49:51;;;;;;;;;;;;;;;-5.29;93.79;92723.91;1063170;56;20193;-85
2021/01/17 02:50:51;;;;;;;;;;;;;;;-5.32;93.61;92727.91;1063086;56;20245;-83
2021/01/17 02:51:52;;;;;;;;;;;;;;;-5.48;94.13;92728.91;1061124;56;20147;-84
2021/01/17 02:52:55;;;;;;;;;;;;;;;-5.40;94.28;92725.41;1063254;56;20217;-84
2021/01/17 02:54:05;;;;;;;;;;;;;;;-5.45;94.56;92731.59;1063132;56;20277;-84
2021/01/17 02:55:06;;;;;;;;;;;;;;;-5.42;95.18;92727.59;1059493;56;20247;-84
2021/01/17 02:56:08;;;;;;;;;;;;;;;-5.44;94.84;92727.19;1063093;55;20631;-83
2021/01/17 02:57:10;;;;;;;;;;;;;;;-5.38;94.19;92737.03;1065211;56;20185;-84
2021/01/17 02:58:12;;;;;;;;;;;;;;;-5.40;94.52;92726.19;1061031;56;20146;-83
2021/01/17 02:59:14;;;;;;;;;;;;;;;-5.42;94.37;92730.97;1060956;56;20174;-84
2021/01/17 03:00:15;;;;;;;;;;;;;;;-5.41;94.52;92718.69;1063253;56;20659;-85
2021/01/17 03:01:20;;;;;;;;;;;;;;;-5.42;94.35;92719.78;1059157;56;20261;-84
2021/01/17 03:02:25;;;;;;;;;;;;;;;-5.35;94.24;92720.78;1061326;56;20631;-86
2021/01/17 03:03:36;;;;;;;;;;;;;;;-5.33;93.90;92723.03;1063428;56;20209;-85
2021/01/17 03:04:42;;;;;;;;;;;;;;;-5.32;94.28;92720.09;1061779;56;20157;-84
2021/01/17 03:05:44;;;;;;;;;;;;;;;-5.28;93.85;92722.81;1061343;56;20635;-86
2021/01/17 03:06:45;;;;;;;;;;;;;;;-5.28;93.96;92720.22;1061214;56;20229;-84
2021/01/17 03:07:48;;;;;;;;;;;;;;;-5.35;93.95;92720.78;1063196;56;20184;-85
2021/01/17 03:08:48;;;;;;;;;;;;;;;-5.32;93.77;92717.50;1063043;56;20179;-84
2021/01/17 03:09:50;;;;;;;;;;;;;;;-5.34;93.52;92718.94;1058743;56;20189;-83
2021/01/17 03:10:50;;;;;;;;;;;;;;;-5.33;93.57;92713.38;1062964;56;20280;-84
2021/01/17 03:11:50;;;;;;;;;;;;;;;-5.36;93.91;92719.22;1062123;56;20220;-84
2021/01/17 03:12:51;;;;;;;;;;;;;;;-5.30;93.89;92719.03;1065439;56;20146;-84
2021/01/17 03:13:52;;;;;;;;;;;;;;;-5.34;93.68;92717.06;1062933;56;20166;-85
2021/01/17 03:14:54;;;;;;;;;;;;;;;-5.29;94.09;92720.56;1060980;56;20195;-82
2021/01/17 03:15:55;;;;;;;;;;;;;;;-5.33;93.52;92717.84;1061261;56;20202;-83
2021/01/17 03:16:55;;;;;;;;;;;;;;;-5.32;93.97;92717.50;1058928;56;20151;-84
2021/01/17 03:17:56;;;;;;;;;;;;;;;-5.35;93.79;92715.56;1058982;56;20159;-84
2021/01/17 03:18:57;;;;;;;;;;;;;;;-5.27;94.27;92703.50;1060811;56;20682;-83
2021/01/17 03:19:58;;;;;;;;;;;;;;;-5.35;93.66;92709.59;1058831;56;20143;-84
2021/01/17 03:20:59;;;;;;;;;;;;;;;-5.38;93.71;92713.59;1060669;56;20636;-83
2021/01/17 03:21:59;;;;;;;;;;;;;;;-5.37;93.92;92709.91;1060761;56;20175;-83
2021/01/17 03:23:00;;;;;;;;;;;;;;;-5.28;93.66;92707.19;1062870;56;20642;-83
2021/01/17 03:24:00;;;;;;;;;;;;;;;-5.35;93.82;92714.81;1064979;56;20166;-83
2021/01/17 03:25:01;;;;;;;;;;;;;;;-5.32;94.19;92714.13;1062892;56;20161;-84
2021/01/17 03:26:02;;;;;;;;;;;;;;;-5.26;94.60;92714.69;1062906;56;20240;-83
2021/01/17 03:27:03;;;;;;;;;;;;;;;-5.30;93.98;92709.38;1065235;55;20174;-84
2021/01/17 03:28:03;;;;;;;;;;;;;;;-5.34;94.44;92708.50;1065398;55;20177;-84
2021/01/17 03:29:04;;;;;;;;;;;;;;;-5.31;94.09;92702.66;1061077;56;20154;-82
2021/01/17 03:30:05;;;;;;;;;;;;;;;-5.41;93.93;92711.62;1061099;56;20254;-85
2021/01/17 03:31:05;;;;;;;;;;;;;;;-5.42;93.94;92714.56;1063250;56;20188;-84
2021/01/17 03:32:06;;;;;;;;;;;;;;;-5.38;93.94;92715.44;1063345;56;20165;-83
2021/01/17 03:33:07;;;;;;;;;;;;;;;-5.35;94.20;92715.56;1065441;55;20235;-84
2021/01/17 03:34:07;;;;;;;;;;;;;;;-5.26;93.91;92710.25;1063298;56;20251;-83
2021/01/17 03:35:11;;;;;;;;;;;;;;;-5.22;93.62;92710.34;1059095;56;20190;-84
2021/01/17 03:36:12;;;;;;;;;;;;;;;-5.32;94.12;92721.94;1059281;56;20242;-83
2021/01/17 03:37:12;;;;;;;;;;;;;;;-5.29;93.89;92716.09;1061226;56;20182;-84
2021/01/17 03:38:13;;;;;;;;;;;;;;;-5.37;94.05;92719.56;1061234;56;20205;-84
2021/01/17 03:39:13;;;;;;;;;;;;;;;-5.36;94.40;92718.47;1060947;56;20178;-85
2021/01/17 03:40:14;;;;;;;;;;;;;;;-5.26;94.20;92719.91;1063194;56;20267;-84
2021/01/17 03:41:14;;;;;;;;;;;;;;;-5.27;94.63;92718.38;1065563;55;20150;-83
2021/01/17 03:42:15;;;;;;;;;;;;;;;-5.19;94.30;92714.91;1061065;56;20155;-84
2021/01/17 03:43:16;;;;;;;;;;;;;;;-5.27;94.01;92710.56;1059045;56;20185;-84
2021/01/17 03:44:17;;;;;;;;;;;;;;;-5.26;94.07;92715.44;1063258;55;20268;-85
2021/01/17 03:45:18;;;;;;;;;;;;;;;-5.21;93.72;92710.03;1065353;55;20181;-84
2021/01/17 03:46:18;;;;;;;;;;;;;;;-5.20;93.94;92702.97;1065159;55;20173;-84
2021/01/17 03:47:19;;;;;;;;;;;;;;;-5.25;94.18;92709.16;1065477;55;20227;-84
2021/01/17 03:48:20;;;;;;;;;;;;;;;-5.25;94.28;92711.00;1065288;55;20173;-84
2021/01/17 03:49:20;;;;;;;;;;;;;;;-5.22;94.60;92710.34;1061282;56;20158;-83
2021/01/17 03:50:21;;;;;;;;;;;;;;;-5.26;94.63;92718.06;1058937;56;20647;-84
2021/01/17 03:51:21;;;;;;;;;;;;;;;-5.26;94.77;92710.25;1061160;56;20624;-85
2021/01/17 03:52:22;;;;;;;;;;;;;;;-5.26;95.40;92707.63;1060857;56;20162;-83
2021/01/17 03:53:22;;;;;;;;;;;;;;;-5.27;95.34;92708.69;1063034;56;20189;-85
2021/01/17 03:54:23;;;;;;;;;;;;;;;-5.26;95.75;92710.25;1065114;55;21112;-84
2021/01/17 03:55:24;;;;;;;;;;;;;;;-5.26;95.13;92715.44;1063181;56;20236;-83
2021/01/17 03:56:24;;;;;;;;;;;;;;;-5.25;95.07;92709.16;1063043;56;20166;-84
2021/01/17 03:57:25;;;;;;;;;;;;;;;-5.32;95.06;92714.91;1063174;56;20150;-85
2021/01/17 03:58:25;;;;;;;;;;;;;;;-5.27;95.42;92711.31;1060941;56;20672;-84
2021/01/17 03:59:26;;;;;;;;;;;;;;;-5.17;95.53;92710.12;1062930;56;20163;-85
2021/01/17 04:00:26;;;;;;;;;;;;;;;-5.15;95.45;92705.34;1065265;55;20158;-84
2021/01/17 04:01:29;;;;;;;;;;;;;;;-5.18;95.09;92706.78;1061034;56;20202;-84
2021/01/17 04:02:29;;;;;;;;;;;;;;;-5.14;94.56;92702.41;1063293;56;20248;-83
2021/01/17 04:03:30;;;;;;;;;;;;;;;-5.26;94.77;92714.69;1065049;55;20561;-83
2021/01/17 04:04:30;;;;;;;;;;;;;;;-5.21;94.96;92707.41;1061031;56;20264;-85
2021/01/17 04:05:31;;;;;;;;;;;;;;;-5.23;94.94;92709.56;1063303;56;20166;-84
2021/01/17 04:06:31;;;;;;;;;;;;;;;-5.19;94.71;92718.25;1063164;56;20659;-83
2021/01/17 04:07:33;;;;;;;;;;;;;;;-5.18;94.77;92714.59;1063437;56;20236;-84
2021/01/17 04:08:34;;;;;;;;;;;;;;;-5.17;95.17;92710.12;1063199;56;20144;-84
2021/01/17 04:09:34;;;;;;;;;;;;;;;-5.14;95.31;92710.22;1063169;56;20146;-84
2021/01/17 04:10:35;;;;;;;;;;;;;;;-5.15;95.23;92715.75;1060878;56;20556;-83
2021/01/17 04:11:35;;;;;;;;;;;;;;;-5.14;95.22;92709.47;1061699;56;20166;-83
2021/01/17 04:12:36;;;;;;;;;;;;;;;-5.15;95.05;92713.91;1067274;55;20649;-85
2021/01/17 04:13:36;;;;;;;;;;;;;;;-5.14;95.08;92707.59;1065243;55;20185;-85
2021/01/17 04:14:37;;;;;;;;;;;;;;;-5.09;95.08;92704.81;1063195;56;20154;-84
2021/01/17 04:15:37;;;;;;;;;;;;;;;-5.08;94.72;92706.31;1063199;56;20248;-85
2021/01/17 04:16:37;;;;;;;;;;;;;;;-4.93;94.17;92714.53;1060975;56;20151;-86
2021/01/17 04:17:38;;;;;;;;;;;;;;;-5.06;94.21;92709.34;1060903;56;20155;-83
2021/01/17 04:18:39;;;;;;;;;;;;;;;-5.09;94.69;92706.66;1063279;56;20194;-83
2021/01/17 04:19:39;;;;;;;;;;;;;;;-5.13;94.96;92711.75;1065474;55;20189;-84
2021/01/17 04:20:43;;;;;;;;;;;;;;;-5.02;94.40;92711.31;1065392;55;20162;-83
2021/01/17 04:21:44;;;;;;;;;;;;;;;-5.12;94.43;92705.44;1061252;56;20289;-83
2021/01/17 04:22:44;;;;;;;;;;;;;;;-5.14;94.73;92704.25;1061165;56;20236;-84
2021/01/17 04:23:45;;;;;;;;;;;;;;;-5.18;95.11;92709.38;1065196;55;20193;-84
2021/01/17 04:24:45;;;;;;;;;;;;;;;-5.23;95.43;92709.56;1063379;56;20154;-83
2021/01/17 04:25:46;;;;;;;;;;;;;;;-5.22;95.73;92705.91;1059080;56;20151;-84
2021/01/17 04:26:47;;;;;;;;;;;;;;;-5.19;95.57;92702.62;1061067;56;20241;-83
2021/01/17 04:27:48;;;;;;;;;;;;;;;-5.16;95.50;92703.84;1063330;55;20166;-85
2021/01/17 04:28:48;;;;;;;;;;;;;;;-5.13;95.33;92703.94;1065342;55;20150;-84
2021/01/17 04:29:49;;;;;;;;;;;;;;;-5.13;94.95;92706.53;1061051;56;20146;-84
2021/01/17 04:30:49;;;;;;;;;;;;;;;-5.10;95.26;92707.72;1061016;56;20190;-86
2021/01/17 04:31:50;;;;;;;;;;;;;;;-5.14;95.21;92702.41;1063256;56;20158;-83
2021/01/17 04:32:50;;;;;;;;;;;;;;;-5.13;94.95;92696.12;1061109;56;20162;-83
2021/01/17 04:33:51;;;;;;;;;;;;;;;-5.10;95.33;92702.50;1058974;56;20174;-84
2021/01/17 04:34:51;;;;;;;;;;;;;;;-5.08;95.42;92698.50;1059072;56;20186;-84
2021/01/17 04:35:52;;;;;;;;;;;;;;;-5.11;95.42;92709.56;1061065;56;20150;-85
2021/01/17 04:36:52;;;;;;;;;;;;;;;-5.07;95.38;92709.69;1061121;56;20178;-86
2021/01/17 04:37:59;;;;;;;;;;;;;;;-5.10;95.06;92705.13;1061009;56;20170;-85
2021/01/17 04:39:00;;;;;;;;;;;;;;;-5.08;95.32;92719.34;1063501;56;20154;-86
2021/01/17 04:40:01;;;;;;;;;;;;;;;-5.09;95.37;92715.22;1063280;56;20182;-85
2021/01/17 04:41:03;;;;;;;;;;;;;;;-4.99;94.99;92715.88;1065445;55;20228;-83
2021/01/17 04:42:07;;;;;;;;;;;;;;;-5.07;95.29;92707.84;1065552;55;20157;-83
2021/01/17 04:43:08;;;;;;;;;;;;;;;-5.11;95.01;92714.03;1065678;55;20721;-84
2021/01/17 04:44:10;;;;;;;;;;;;;;;-5.13;95.42;92714.37;1063206;56;20671;-84
2021/01/17 04:45:11;;;;;;;;;;;;;;;-5.12;95.62;92712.50;1059143;56;20194;-84
2021/01/17 04:46:12;;;;;;;;;;;;;;;-5.09;95.94;92707.41;1061206;56;20253;-84
2021/01/17 04:47:16;;;;;;;;;;;;;;;-5.04;95.32;92716.84;1063270;56;20166;-83
2021/01/17 04:48:17;;;;;;;;;;;;;;;-5.10;95.07;92715.53;1063171;56;20166;-84
2021/01/17 04:49:19;;;;;;;;;;;;;;;-5.13;94.96;92709.16;1063313;56;20244;-85
2021/01/17 04:50:20;;;;;;;;;;;;;;;-5.09;95.13;92715.22;1063477;56;20666;-84
2021/01/17 04:51:21;;;;;;;;;;;;;;;-5.12;95.27;92705.44;1061226;56;20186;-83
2021/01/17 04:52:24;;;;;;;;;;;;;;;-4.94;94.85;92710.44;1059084;56;20202;-86
2021/01/17 04:53:27;;;;;;;;;;;;;;;-4.95;94.59;92712.28;1061604;56;20225;-84
2021/01/17 04:54:28;;;;;;;;;;;;;;;-4.96;94.85;92709.97;1065439;55;20177;-85
2021/01/17 04:55:30;;;;;;;;;;;;;;;-5.00;94.03;92712.50;1065085;55;20181;-83
2021/01/17 04:56:32;;;;;;;;;;;;;;;-5.01;95.06;92712.81;1065509;55;20161;-86
2021/01/17 04:57:35;;;;;;;;;;;;;;;-5.02;95.35;92709.44;1065563;55;20200;-84
2021/01/17 04:58:38;;;;;;;;;;;;;;;-4.98;94.70;92710.31;1063597;56;20255;-84
2021/01/17 04:59:45;;;;;;;;;;;;;;;-4.98;94.49;92714.78;1063591;55;20645;-86
2021/01/17 05:00:55;;;;;;;;;;;;;;;-5.03;94.80;92705.34;1065571;55;20633;-84
2021/01/17 05:02:14;;;;;;;;;;;;;;;-5.06;94.93;92711.94;1065845;55;20192;-85
2021/01/17 05:03:26;;;;;;;;;;;;;;;-5.01;94.80;92712.81;1067847;55;20165;-85
2021/01/17 05:04:33;;;;;;;;;;;;;;;-4.99;94.76;92711.41;1067827;55;20286;-83
2021/01/17 05:05:46;;;;;;;;;;;;;;;-4.98;94.90;92715.53;1067469;55;20220;-84
2021/01/17 05:06:56;;;;;;;;;;;;;;;-4.96;94.61;92713.38;1065032;55;20642;-85
2021/01/17 05:08:15;;;;;;;;;;;;;;;-5.03;95.52;92720.22;1064128;55;20181;-82
2021/01/17 05:09:21;;;;;;;;;;;;;;;-4.97;95.29;92713.69;1066921;55;20212;-85
2021/01/17 05:10:47;;;;;;;;;;;;;;;-4.93;94.89;92714.53;1065567;55;20713;-83
2021/01/17 05:11:49;;;;;;;;;;;;;;;-4.89;94.90;92721.37;1064179;55;20169;-84
2021/01/17 05:12:51;;;;;;;;;;;;;;;-4.86;94.43;92725.19;1067872;55;20197;-84
2021/01/17 05:14:07;;;;;;;;;;;;;;;-4.83;94.37;92732.31;1065497;55;20169;-83
2021/01/17 05:15:08;;;;;;;;;;;;;;;-4.93;94.78;92724.97;1061642;56;20690;-85
2021/01/17 05:16:09;;;;;;;;;;;;;;;-4.93;95.17;92723.13;1059247;56;20190;-84
2021/01/17 05:17:09;;;;;;;;;;;;;;;-4.90;95.01;92727.69;1061256;56;20170;-84
2021/01/17 05:18:10;;;;;;;;;;;;;;;-4.92;95.14;92724.63;1065456;55;20202;-84
2021/01/17 05:19:20;;;;;;;;;;;;;;;-4.97;94.97;92724.09;1067774;55;20192;-83
2021/01/17 05:20:21;;;;;;;;;;;;;;;-4.90;95.38;92732.13;1063273;56;20166;-84
2021/01/17 05:21:23;;;;;;;;;;;;;;;-4.95;95.80;92732.38;1063443;56;20166;-84
2021/01/17 05:22:26;;;;;;;;;;;;;;;-4.92;95.81;92732.44;1063318;56;20158;-84
2021/01/17 05:23:36;;;;;;;;;;;;;;;-4.94;96.01;92733.88;1061165;56;20170;-83
2021/01/17 05:24:41;;;;;;;;;;;;;;;-4.88;95.68;92741.12;1059769;56;20187;-85